Time;durP1;ratioP1;P1;durP2;ratioP2;P2;SDS_P1;SDS_P2;PMS_P1;PMS_P2;Temp;Humidity;BMP_temperature;BMP_pressure;BME280_temperature;BME280_humidity;BME280_pressure;Samples;Min_cycle;Max_cycle;Signal;HPM_P1;HPM_P2
2021/03/13 00:01:30;;;;;;;1.40;0.70;;;;;;;21.86;32.86;99998.66;4953157;28;96746;-56
2021/03/13 00:03:56;;;;;;;1.42;0.75;;;;;;;21.86;32.95;99990.72;4950969;28;96964;-57
2021/03/13 00:06:22;;;;;;;2.67;0.70;;;;;;;21.85;33.08;99989.84;4948729;28;97225;-56
2021/03/13 00:08:47;;;;;;;1.27;0.70;;;;;;;21.85;32.93;99988.97;4944974;28;122739;-57
2021/03/13 00:11:12;;;;;;;1.27;0.70;;;;;;;21.85;32.91;99983.66;4948607;28;112400;-56
2021/03/13 00:13:38;;;;;;;1.00;0.50;;;;;;;21.84;32.92;99980.16;4940966;28;104857;-57
2021/03/13 00:16:05;;;;;;;1.48;0.60;;;;;;;21.84;33.03;99974.84;4953886;28;97336;-57
2021/03/13 00:18:31;;;;;;;1.40;0.70;;;;;;;21.83;32.74;99973.13;4953571;28;97316;-57
2021/03/13 00:20:57;;;;;;;1.17;0.50;;;;;;;21.82;32.66;99963.44;4950691;28;96914;-57
2021/03/13 00:23:22;;;;;;;1.27;0.65;;;;;;;21.82;32.77;99960.78;4947989;28;111798;-57
2021/03/13 00:25:47;;;;;;;1.00;0.55;;;;;;;21.83;33.10;99957.19;4949952;28;97421;-57
2021/03/13 00:28:13;;;;;;;1.20;0.68;;;;;;;21.83;32.60;99959.00;4953338;28;97205;-57
2021/03/13 00:30:43;;;;;;;2.50;0.70;;;;;;;21.83;32.76;99957.19;4948821;28;110913;-47
2021/03/13 00:33:13;;;;;;;1.92;1.20;;;;;;;21.83;32.58;99951.88;4944643;28;97378;-48
2021/03/13 00:35:39;;;;;;;1.52;0.50;;;;;;;21.84;33.04;99940.34;4953355;28;105105;-49
2021/03/13 00:38:05;;;;;;;1.50;1.10;;;;;;;21.84;32.60;99931.53;4948332;28;97738;-47
2021/03/13 00:40:31;;;;;;;1.23;0.65;;;;;;;21.83;32.54;99912.06;4950126;28;96714;-48
2021/03/13 00:42:57;;;;;;;1.63;1.17;;;;;;;21.84;33.10;99916.44;4951115;28;96814;-48
2021/03/13 00:45:24;;;;;;;1.73;0.90;;;;;;;21.83;32.69;99914.72;4947175;28;97700;-47
2021/03/13 00:47:50;;;;;;;1.77;0.75;;;;;;;21.83;32.78;99906.75;4944596;28;97172;-48
2021/03/13 00:50:16;;;;;;;2.22;1.58;;;;;;;21.83;32.80;99900.59;4959870;28;97477;-48
2021/03/13 00:52:42;;;;;;;1.08;0.63;;;;;;;21.82;32.93;99899.75;4976113;22;97533;-50
2021/03/13 00:55:09;;;;;;;1.42;0.80;;;;;;;21.82;32.93;99888.28;4938883;28;97529;-50
2021/03/13 00:57:35;;;;;;;1.40;0.77;;;;;;;21.80;32.93;99893.66;4942701;28;96965;-50
2021/03/13 01:00:05;;;;;;;1.85;0.80;;;;;;;21.80;32.77;99891.00;4958222;28;99610;-50
2021/03/13 01:02:31;;;;;;;2.20;0.85;;;;;;;21.80;32.50;99888.34;4954847;28;97464;-50
2021/03/13 01:04:57;;;;;;;1.70;1.08;;;;;;;21.80;32.88;99882.16;4954107;28;98584;-50
2021/03/13 01:07:22;;;;;;;0.80;0.50;;;;;;;21.79;32.83;99873.34;4947795;28;97810;-50
2021/03/13 01:09:49;;;;;;;1.55;0.88;;;;;;;21.79;32.85;99861.88;4944408;28;96772;-50
2021/03/13 01:12:15;;;;;;;1.42;1.23;;;;;;;21.77;32.95;99864.59;4942287;28;97101;-50
2021/03/13 01:14:40;;;;;;;0.80;0.70;;;;;;;21.77;32.74;99859.28;4951426;28;98634;-50
2021/03/13 01:17:06;;;;;;;1.58;0.55;;;;;;;21.77;33.08;99856.63;4940587;28;97197;-50
2021/03/13 01:19:31;;;;;;;1.30;1.00;;;;;;;21.77;32.74;99846.03;4943144;28;96935;-50
2021/03/13 01:21:57;;;;;;;1.25;0.50;;;;;;;21.76;32.93;99833.66;4944868;28;96892;-50
2021/03/13 01:24:22;;;;;;;1.70;0.85;;;;;;;21.76;32.94;99830.16;4941462;28;115048;-50
2021/03/13 01:26:48;;;;;;;1.40;0.70;;;;;;;21.76;32.94;99824.84;4956080;28;99371;-50
2021/03/13 01:29:13;;;;;;;1.58;0.82;;;;;;;21.75;32.71;99824.00;4942498;28;96803;-50
2021/03/13 01:31:47;;;;;;;1.92;0.88;;;;;;;21.76;32.67;99816.91;4939831;28;97203;-50
2021/03/13 01:34:15;;;;;;;2.08;0.60;;;;;;;21.76;33.10;99814.25;4942899;28;97392;-50
2021/03/13 01:36:48;;;;;;;2.07;0.67;;;;;;;21.74;33.01;99795.75;4936679;28;97472;-50
2021/03/13 01:39:14;;;;;;;1.05;0.50;;;;;;;21.75;32.62;99804.59;4940755;28;96766;-50
2021/03/13 01:41:40;;;;;;;1.02;0.50;;;;;;;21.74;32.96;99790.44;4957984;28;96886;-50
2021/03/13 01:44:05;;;;;;;1.58;0.90;;;;;;;21.73;33.05;99785.19;4937515;28;100037;-50
2021/03/13 01:46:31;;;;;;;1.67;0.80;;;;;;;21.72;33.01;99768.41;4961785;28;97262;-50
2021/03/13 01:48:57;;;;;;;1.25;0.60;;;;;;;21.72;32.71;99767.56;4949208;28;96706;-50
2021/03/13 01:51:26;;;;;;;1.75;0.70;;;;;;;21.72;32.71;99751.66;4949936;28;97270;-50
2021/03/13 01:53:56;;;;;;;2.40;0.70;;;;;;;21.70;32.92;99746.41;4951714;28;97619;-50
2021/03/13 01:56:25;;;;;;;1.25;0.50;;;;;;;21.71;33.02;99737.53;4949804;28;97602;-50
2021/03/13 01:58:54;;;;;;;1.65;0.60;;;;;;;21.71;33.14;99734.88;4934389;28;96844;-50
2021/03/13 02:01:28;;;;;;;1.40;0.60;;;;;;;21.70;32.83;99730.50;4951160;28;96977;-50
2021/03/13 02:03:54;;;;;;;1.27;0.70;;;;;;;21.71;32.70;99724.25;4938248;28;99810;-50
2021/03/13 02:06:19;;;;;;;2.00;0.68;;;;;;;21.71;32.99;99718.06;4949854;28;98422;-50
2021/03/13 02:09:17;;;;;;;1.58;1.48;;;;;;;21.70;32.89;99711.06;4941217;28;96792;-50
2021/03/13 02:11:45;;;;;;;1.60;0.50;;;;;;;21.71;33.18;99697.72;4937715;28;96873;-50
2021/03/13 02:14:18;;;;;;;1.20;0.68;;;;;;;21.71;33.16;99696.84;4950146;28;99566;-50
2021/03/13 02:17:10;;;;;;;1.52;0.70;;;;;;;21.71;33.05;99694.19;4935443;28;100673;-50
2021/03/13 02:20:14;;;;;;;2.05;0.65;;;;;;;21.70;33.14;99685.38;4936297;28;97564;-50
2021/03/13 02:22:42;;;;;;;1.08;0.70;;;;;;;21.72;33.03;99672.88;4941410;28;96841;-50
2021/03/13 02:26:04;;;;;;;1.40;0.57;;;;;;;21.70;32.97;99668.59;4936314;28;97216;-50
2021/03/13 02:29:01;;;;;;;1.45;0.60;;;;;;;21.70;32.92;99655.34;4945641;28;99570;-50
2021/03/13 02:31:27;;;;;;;0.70;0.50;;;;;;;21.72;33.20;99626.91;4952223;28;96847;-50
2021/03/13 02:33:53;;;;;;;1.55;0.70;;;;;;;21.72;33.04;99632.22;4933611;28;96955;-50
2021/03/13 02:36:29;;;;;;;1.27;0.60;;;;;;;21.73;33.07;99632.16;4953774;28;98698;-50
2021/03/13 02:39:06;;;;;;;0.90;0.50;;;;;;;21.74;32.97;99615.28;4951582;28;98319;-50
2021/03/13 02:41:37;;;;;;;2.22;0.90;;;;;;;21.76;33.10;99609.88;4940466;28;96798;-50
2021/03/13 02:44:04;;;;;;;0.93;0.50;;;;;;;21.76;33.03;99602.78;4936391;28;97271;-50
2021/03/13 02:46:39;;;;;;;1.17;0.60;;;;;;;21.76;32.75;99599.25;4953376;28;98628;-50
2021/03/13 02:49:05;;;;;;;1.13;0.70;;;;;;;21.77;32.79;99593.88;4935152;28;98415;-50
2021/03/13 02:51:30;;;;;;;0.85;0.40;;;;;;;21.78;32.73;99595.59;4953006;28;99400;-50
2021/03/13 02:53:57;;;;;;;0.75;0.47;;;;;;;21.78;32.54;99590.31;4922696;28;96787;-50
2021/03/13 02:56:23;;;;;;;1.02;0.50;;;;;;;21.79;33.04;99576.06;4952873;28;99587;-50
2021/03/13 02:58:50;;;;;;;0.70;0.50;;;;;;;21.80;32.95;99543.28;4955465;28;97400;-50
2021/03/13 03:01:19;;;;;;;1.20;0.50;;;;;;;21.82;33.04;99537.91;4953630;28;96917;-50
2021/03/13 03:03:44;;;;;;;1.77;0.60;;;;;;;21.81;32.83;99526.41;4921848;28;97209;-50
2021/03/13 03:06:19;;;;;;;0.95;0.60;;;;;;;21.82;32.93;99509.56;4934373;28;98619;-50
2021/03/13 03:08:48;;;;;;;0.98;0.55;;;;;;;21.83;32.80;99500.63;4954042;28;97350;-50
2021/03/13 03:11:20;;;;;;;1.05;0.50;;;;;;;21.84;32.76;99512.13;4921803;28;96782;-50
2021/03/13 03:13:47;;;;;;;0.80;0.40;;;;;;;21.85;32.95;99492.59;4953039;28;96848;-50
2021/03/13 03:16:12;;;;;;;1.00;0.50;;;;;;;21.85;32.97;99484.63;4952485;28;97868;-50
2021/03/13 03:18:38;;;;;;;1.05;0.60;;;;;;;21.85;32.58;99468.69;4949047;28;98439;-50
2021/03/13 03:21:04;;;;;;;1.30;0.70;;;;;;;21.86;33.04;99451.84;4923207;28;97262;-50
2021/03/13 03:23:30;;;;;;;1.00;0.63;;;;;;;21.85;32.99;99448.34;4922688;28;97127;-50
2021/03/13 03:25:56;;;;;;;1.10;0.50;;;;;;;21.86;32.51;99438.59;4934026;28;98784;-50
2021/03/13 03:28:22;;;;;;;0.77;0.50;;;;;;;21.85;32.83;99444.81;4957337;28;97476;-50
2021/03/13 03:30:55;;;;;;;1.13;0.40;;;;;;;21.85;32.72;99435.09;4948482;28;96837;-50
2021/03/13 03:33:23;;;;;;;1.33;0.50;;;;;;;21.86;32.93;99422.66;4944371;28;96813;-50
2021/03/13 03:35:54;;;;;;;1.88;0.50;;;;;;;21.86;32.79;99414.69;4941857;28;97657;-50
2021/03/13 03:38:23;;;;;;;1.25;0.50;;;;;;;21.85;32.97;99402.34;4957991;28;97572;-50
2021/03/13 03:40:48;;;;;;;0.57;0.40;;;;;;;21.85;32.72;99387.31;4960291;28;96832;-50
2021/03/13 03:43:23;;;;;;;0.98;0.50;;;;;;;21.85;32.98;99386.44;4954418;28;98603;-50
2021/03/13 03:45:54;;;;;;;1.13;0.50;;;;;;;21.86;32.64;99390.81;4941975;28;97536;-50
2021/03/13 03:48:20;;;;;;;1.10;0.43;;;;;;;21.86;32.94;99389.00;4932955;28;98982;-50
2021/03/13 03:50:48;;;;;;;0.85;0.50;;;;;;;21.86;32.86;99375.72;4939772;28;96818;-50
2021/03/13 03:53:27;;;;;;;0.98;0.50;;;;;;;21.87;32.74;99368.59;4915595;28;98649;-50
2021/03/13 03:55:53;;;;;;;0.82;0.57;;;;;;;21.88;32.71;99361.53;4944723;28;117452;-49
2021/03/13 03:58:23;;;;;;;0.90;0.52;;;;;;;21.89;32.83;99352.59;4949533;28;112070;-50
2021/03/13 04:00:49;;;;;;;1.02;0.40;;;;;;;21.89;33.01;99339.31;4951534;28;96692;-50
2021/03/13 04:03:15;;;;;;;0.70;0.63;;;;;;;21.90;32.88;99341.03;4942073;28;98326;-50
2021/03/13 04:05:41;;;;;;;0.70;0.40;;;;;;;21.90;33.03;99330.44;4942094;28;97468;-50
2021/03/13 04:08:08;;;;;;;0.88;0.40;;;;;;;21.90;32.58;99315.34;4939089;28;97285;-50
2021/03/13 04:10:33;;;;;;;0.80;0.45;;;;;;;21.90;32.62;99314.50;4949502;28;97037;-49
2021/03/13 04:12:59;;;;;;;1.13;1.02;;;;;;;21.91;32.99;99306.47;4947700;28;111625;-50
2021/03/13 04:15:24;;;;;;;1.38;0.50;;;;;;;21.90;32.91;99294.13;4944019;28;99633;-50
2021/03/13 04:17:49;;;;;;;0.95;0.50;;;;;;;21.91;32.83;99284.34;4937524;28;123402;-50
2021/03/13 04:20:15;;;;;;;0.50;0.50;;;;;;;21.91;32.68;99295.84;4942432;28;110797;-50
2021/03/13 04:22:40;;;;;;;1.23;0.40;;;;;;;21.91;32.64;99279.91;4940960;28;111808;-50
2021/03/13 04:25:07;;;;;;;0.65;0.40;;;;;;;21.92;32.89;99267.47;4949059;28;97681;-50
2021/03/13 04:27:33;;;;;;;0.70;0.43;;;;;;;21.92;32.57;99264.84;4947671;28;96696;-50
2021/03/13 04:29:58;;;;;;;0.60;0.50;;;;;;;21.93;32.79;99259.44;4934927;28;100819;-50
2021/03/13 04:32:24;;;;;;;0.73;0.40;;;;;;;21.92;32.49;99259.53;4951496;28;96867;-50
2021/03/13 04:34:51;;;;;;;1.15;0.40;;;;;;;21.92;32.88;99236.47;4925720;28;97585;-50
2021/03/13 04:37:16;;;;;;;1.30;0.45;;;;;;;21.92;32.75;99231.16;4955331;28;97346;-50
2021/03/13 04:39:43;;;;;;;1.30;0.70;;;;;;;21.92;32.79;99225.84;4919685;28;110827;-50
2021/03/13 04:42:08;;;;;;;0.80;0.50;;;;;;;21.92;32.90;99214.41;4956896;28;96817;-50
2021/03/13 04:44:34;;;;;;;1.00;0.60;;;;;;;21.92;32.62;99207.28;4943517;28;126807;-50
2021/03/13 04:47:01;;;;;;;0.70;0.40;;;;;;;21.92;32.90;99217.06;4946147;28;126669;-50
2021/03/13 04:49:26;;;;;;;0.75;0.45;;;;;;;21.91;32.64;99200.28;4941739;28;96778;-50
2021/03/13 04:51:52;;;;;;;0.68;0.35;;;;;;;21.92;32.99;99198.47;4938487;28;111135;-50
2021/03/13 04:54:17;;;;;;;0.93;0.50;;;;;;;21.92;32.71;99185.19;4936516;28;97584;-50
2021/03/13 04:56:43;;;;;;;0.88;0.45;;;;;;;21.92;32.68;99178.09;4938791;28;127885;-50
2021/03/13 04:59:08;;;;;;;0.73;0.40;;;;;;;21.92;32.69;99177.25;4938475;28;97232;-50
2021/03/13 05:01:34;;;;;;;1.25;0.60;;;;;;;21.92;32.93;99171.94;4956488;28;98504;-50
2021/03/13 05:04:00;;;;;;;1.48;0.50;;;;;;;21.92;32.88;99171.94;4938023;28;127327;-50
2021/03/13 05:06:25;;;;;;;0.98;0.50;;;;;;;21.92;32.77;99150.69;4942248;28;110733;-50
2021/03/13 05:08:51;;;;;;;1.08;0.40;;;;;;;21.92;32.92;99132.97;4939339;28;109827;-50
2021/03/13 05:11:16;;;;;;;1.30;0.60;;;;;;;21.92;32.81;99126.81;4940091;28;96797;-50
2021/03/13 05:13:42;;;;;;;0.77;0.52;;;;;;;21.92;32.74;99109.06;4938362;28;97405;-50
2021/03/13 05:16:08;;;;;;;0.70;0.40;;;;;;;21.92;32.62;99117.03;4938808;28;111687;-50
2021/03/13 05:18:33;;;;;;;0.90;0.50;;;;;;;21.93;32.88;99109.94;4940208;28;96803;-50
2021/03/13 05:20:59;;;;;;;0.75;0.40;;;;;;;21.92;32.49;99111.72;4937885;28;105731;-50
2021/03/13 05:23:25;;;;;;;0.75;0.47;;;;;;;21.93;32.96;99104.63;4940037;28;127306;-50
2021/03/13 05:25:50;;;;;;;0.45;0.28;;;;;;;21.92;32.63;99095.78;4956872;28;118643;-50
2021/03/13 05:28:16;;;;;;;1.17;0.57;;;;;;;21.93;32.68;99092.22;4942546;28;97339;-50
2021/03/13 05:30:41;;;;;;;1.13;0.40;;;;;;;21.94;33.08;99085.94;4952603;28;111626;-50
2021/03/13 05:33:07;;;;;;;1.15;1.05;;;;;;;21.94;32.91;99093.91;4939205;28;126640;-50
2021/03/13 05:35:32;;;;;;;1.15;0.43;;;;;;;21.95;32.87;99086.81;4936719;28;97282;-50
2021/03/13 05:37:57;;;;;;;1.05;0.40;;;;;;;21.95;32.68;99084.16;4953870;28;96746;-50
2021/03/13 05:40:23;;;;;;;0.40;0.30;;;;;;;21.95;32.95;99079.69;4940776;28;112710;-50
2021/03/13 05:42:48;;;;;;;0.60;0.52;;;;;;;21.95;32.99;99070.88;4943443;28;126738;-50
2021/03/13 05:45:15;;;;;;;0.50;0.30;;;;;;;21.96;32.67;99075.22;4944382;28;126581;-50
2021/03/13 05:47:40;;;;;;;1.20;0.68;;;;;;;21.96;32.91;99064.59;4938568;28;100731;-50
2021/03/13 05:50:08;;;;;;;1.00;0.43;;;;;;;21.96;32.55;99059.28;4952508;28;97104;-50
2021/03/13 05:52:35;;;;;;;0.82;0.35;;;;;;;21.96;32.76;99059.28;4936860;28;97546;-50
2021/03/13 05:55:00;;;;;;;0.50;0.30;;;;;;;21.96;32.92;99048.69;4944222;28;97531;-50
2021/03/13 05:57:26;;;;;;;1.05;0.55;;;;;;;21.97;32.54;99039.78;4942423;28;96720;-49
2021/03/13 05:59:52;;;;;;;0.90;0.50;;;;;;;21.96;32.69;99043.38;4945890;28;97886;-49
2021/03/13 06:02:18;;;;;;;1.02;0.70;;;;;;;21.96;32.97;99033.63;4938190;28;97732;-50
2021/03/13 06:04:43;;;;;;;0.80;0.50;;;;;;;21.97;32.62;99035.31;4941735;28;97430;-50
2021/03/13 06:07:17;;;;;;;1.13;0.60;;;;;;;21.95;32.79;99021.28;4941020;28;96853;-50
2021/03/13 06:09:42;;;;;;;1.08;0.68;;;;;;;21.97;33.05;99029.16;4938824;28;104620;-50
2021/03/13 06:12:08;;;;;;;0.90;0.50;;;;;;;21.97;32.62;99034.47;4924275;28;97795;-50
2021/03/13 06:14:33;;;;;;;0.95;0.70;;;;;;;21.96;32.55;99035.41;4937310;28;104260;-50
2021/03/13 06:16:59;;;;;;;0.70;0.55;;;;;;;21.95;32.61;99039.88;4942158;28;111963;-50
2021/03/13 06:19:26;;;;;;;1.17;0.52;;;;;;;21.96;32.94;99040.72;4937619;28;111936;-50
2021/03/13 06:21:52;;;;;;;1.05;0.50;;;;;;;21.96;32.92;99044.25;4942736;28;121490;-50
2021/03/13 06:24:21;;;;;;;1.00;0.80;;;;;;;21.96;32.97;99049.56;4942549;28;125946;-50
2021/03/13 06:26:56;;;;;;;0.90;0.65;;;;;;;21.95;32.71;99069.06;4942068;28;97257;-50
2021/03/13 06:29:22;;;;;;;0.52;0.52;;;;;;;21.96;32.92;99092.03;4945875;28;97055;-50
2021/03/13 06:32:07;;;;;;;0.90;0.50;;;;;;;21.93;32.81;99057.69;4947733;28;97559;-50
2021/03/13 06:34:32;;;;;;;0.57;0.38;;;;;;;21.96;32.78;99051.34;4938451;28;97886;-50
2021/03/13 06:37:26;;;;;;;0.85;0.50;;;;;;;21.93;32.92;99059.50;4943881;28;96768;-50
2021/03/13 06:39:52;;;;;;;0.85;0.40;;;;;;;21.95;32.53;99061.09;4953316;28;96697;-51
2021/03/13 06:42:22;;;;;;;0.50;0.30;;;;;;;21.94;32.78;99038.16;4954753;28;120982;-50
2021/03/13 06:45:02;;;;;;;1.05;0.32;;;;;;;21.92;33.07;99029.44;4953406;28;97189;-50
2021/03/13 06:47:37;;;;;;;0.73;0.40;;;;;;;21.94;32.82;99034.66;4959169;28;96687;-50
2021/03/13 06:50:18;;;;;;;0.73;0.30;;;;;;;21.92;32.67;99045.38;4955335;28;96882;-50
2021/03/13 06:52:47;;;;;;;3.88;3.60;;;;;;;21.94;33.11;99053.22;5028967;22;99285;-48
2021/03/13 06:55:20;;;;;;;0.80;0.40;;;;;;;21.94;32.79;99058.53;4956984;28;96744;-48
2021/03/13 06:57:47;;;;;;;0.82;0.50;;;;;;;21.94;32.62;99058.53;4958517;28;97088;-48
2021/03/13 07:00:29;;;;;;;1.08;0.50;;;;;;;21.93;33.08;99051.56;4958981;28;96901;-48
2021/03/13 07:03:11;;;;;;;1.60;0.55;;;;;;;21.93;32.73;99062.16;4943121;28;97459;-49
2021/03/13 07:05:39;;;;;;;0.40;0.28;;;;;;;21.95;32.78;99063.75;4953895;28;97236;-48
2021/03/13 07:08:27;;;;;;;0.73;0.30;;;;;;;21.94;33.02;99071.81;4961466;28;96808;-48
2021/03/13 07:11:08;;;;;;;1.02;0.40;;;;;;;21.94;32.98;99074.47;4943051;28;96701;-48
2021/03/13 07:13:34;;;;;;;0.90;0.40;;;;;;;21.97;33.03;99076.94;4948904;28;97496;-48
2021/03/13 07:16:25;;;;;;;0.60;0.40;;;;;;;21.94;32.85;99083.28;4950437;28;97277;-48
2021/03/13 07:18:52;;;;;;;0.70;0.30;;;;;;;21.98;32.90;99091.94;4942582;28;96840;-48
2021/03/13 07:21:18;;;;;;;0.70;0.40;;;;;;;21.97;32.72;99099.03;4948458;28;97216;-48
2021/03/13 07:23:48;;;;;;;1.00;0.50;;;;;;;21.97;33.08;99104.34;4943586;28;97427;-48
2021/03/13 07:26:13;;;;;;;1.00;0.50;;;;;;;21.98;32.80;99105.22;4945436;28;97180;-48
2021/03/13 07:28:41;;;;;;;0.45;0.30;;;;;;;21.97;32.58;99104.34;4944868;28;96706;-48
2021/03/13 07:31:08;;;;;;;0.55;0.40;;;;;;;21.98;32.98;99108.69;4952156;28;96730;-48
2021/03/13 07:33:34;;;;;;;1.15;0.50;;;;;;;21.99;32.79;99115.69;4945734;28;97347;-49
2021/03/13 07:36:00;;;;;;;1.08;0.60;;;;;;;21.99;33.33;99120.16;4953757;28;97538;-48
2021/03/13 07:38:25;;;;;;;0.50;0.30;;;;;;;22.00;32.96;99114.75;4941765;28;97000;-48
2021/03/13 07:40:51;;;;;;;0.43;0.43;;;;;;;21.99;32.66;99118.34;4954602;28;96807;-48
2021/03/13 07:43:17;;;;;;;0.50;0.45;;;;;;;21.99;32.73;99109.53;4941915;28;97420;-48
2021/03/13 07:45:46;;;;;;;1.08;0.50;;;;;;;21.99;32.72;99120.16;4941077;28;97151;-48
2021/03/13 07:48:12;;;;;;;1.00;0.40;;;;;;;21.99;32.96;99123.66;4924176;28;96933;-48
2021/03/13 07:50:39;;;;;;;0.65;0.35;;;;;;;21.99;32.92;99128.97;4959052;28;96854;-48
2021/03/13 07:53:05;;;;;;;1.23;1.13;;;;;;;22.00;32.47;99138.66;4944194;28;97374;-48
2021/03/13 07:55:31;;;;;;;0.88;0.40;;;;;;;22.01;32.98;99152.78;4956373;28;97268;-48
2021/03/13 07:57:56;;;;;;;0.85;0.57;;;;;;;22.00;32.65;99129.84;4945836;28;97062;-48
2021/03/13 08:00:40;;;;;;;0.90;0.40;;;;;;;21.98;32.84;99129.09;4958521;28;96715;-48
2021/03/13 08:03:24;;;;;;;;;;;;;;;21.99;32.92;99136.94;4946198;28;97349;-48
2021/03/13 08:05:57;;;;;;;0.90;0.50;;;;;;;22.02;32.85;99146.53;4959256;28;97051;-48
2021/03/13 08:08:36;;;;;;;0.93;0.40;;;;;;;21.99;32.67;99144.91;4942218;28;96822;-48
2021/03/13 08:11:04;;;;;;;0.50;0.43;;;;;;;22.00;32.54;99145.78;4954217;28;96914;-48
2021/03/13 08:13:29;;;;;;;0.70;0.40;;;;;;;21.98;33.10;99139.72;4955512;28;97467;-48
2021/03/13 08:16:14;;;;;;;1.15;0.40;;;;;;;21.95;32.62;99130.13;4945150;28;97127;-48
2021/03/13 08:18:43;;;;;;;0.80;0.50;;;;;;;21.98;32.52;99134.41;4944288;28;96817;-48
2021/03/13 08:21:21;;;;;;;1.00;0.60;;;;;;;21.96;32.50;99134.50;4958450;28;97067;-48
2021/03/13 08:23:49;;;;;;;1.30;0.47;;;;;;;21.97;32.49;99130.88;4942151;28;97508;-48
2021/03/13 08:26:15;;;;;;;1.65;0.55;;;;;;;21.97;32.41;99120.25;4957947;28;97300;-49
2021/03/13 08:28:47;;;;;;;0.90;0.30;;;;;;;21.96;32.79;99123.88;4939049;28;96966;-48
2021/03/13 08:31:24;;;;;;;1.40;0.40;;;;;;;21.97;32.78;99130.03;4940719;28;96850;-48
2021/03/13 08:34:01;;;;;;;1.77;1.27;;;;;;;21.97;32.53;99124.72;4941057;28;97359;-49
2021/03/13 08:36:31;;;;;;;1.30;0.43;;;;;;;21.99;32.55;99125.47;4956250;28;96914;-48
2021/03/13 08:39:20;;;;;;;1.38;0.52;;;;;;;21.99;32.71;99130.78;4943777;28;96697;-48
2021/03/13 08:41:55;;;;;;;1.17;0.45;;;;;;;21.98;32.73;99139.72;4938690;28;96929;-48
2021/03/13 08:44:20;;;;;;;1.35;0.50;;;;;;;21.99;32.87;99141.41;4949173;28;97511;-48
2021/03/13 08:46:55;;;;;;;1.70;0.50;;;;;;;21.98;32.78;99145.03;4960004;28;97179;-48
2021/03/13 08:49:24;;;;;;;1.10;0.50;;;;;;;21.99;32.72;99142.25;4953242;28;96892;-48
2021/03/13 08:52:09;;;;;;;1.30;0.60;;;;;;;21.97;32.84;99152.13;4957222;28;97007;-48
2021/03/13 08:54:40;;;;;;;2.05;0.60;;;;;;;22.00;32.84;99157.25;4954100;28;97613;-48
2021/03/13 08:57:13;;;;;;;0.75;0.40;;;;;;;21.99;32.48;99147.56;4949698;28;97227;-48
2021/03/13 08:59:40;;;;;;;1.00;0.40;;;;;;;22.01;32.79;99160.75;4938081;28;97226;-48
2021/03/13 09:02:06;;;;;;;1.15;0.50;;;;;;;22.00;32.54;99172.31;4948868;28;97345;-48
2021/03/13 09:04:33;;;;;;;1.25;0.55;;;;;;;22.01;32.39;99150.13;4952615;28;98003;-48
2021/03/13 09:06:58;;;;;;;1.92;0.60;;;;;;;22.01;32.36;99145.69;4953515;28;97228;-48
2021/03/13 09:09:28;;;;;;;1.45;0.50;;;;;;;22.00;32.80;99157.25;4954049;28;96685;-48
2021/03/13 09:12:15;;;;;;;1.48;0.52;;;;;;;21.99;32.48;99152.03;4953863;28;96832;-48
2021/03/13 09:14:42;;;;;;;1.45;0.60;;;;;;;22.02;32.72;99167.78;4955310;28;97840;-48
2021/03/13 09:17:12;;;;;;;1.17;0.50;;;;;;;22.01;32.60;99168.69;4954381;28;97750;-48
2021/03/13 09:19:37;;;;;;;2.50;0.60;;;;;;;22.00;32.39;99169.66;4953817;28;96733;-48
2021/03/13 09:22:22;;;;;;;1.35;0.60;;;;;;;21.98;32.54;99169.75;4955633;28;97315;-48
2021/03/13 09:24:58;;;;;;;2.05;0.50;;;;;;;22.00;32.46;99174.97;4952062;28;97362;-48
2021/03/13 09:27:28;;;;;;;1.25;0.50;;;;;;;22.00;32.60;99175.81;4951140;28;97341;-48
2021/03/13 09:29:53;;;;;;;1.65;0.70;;;;;;;22.01;32.25;99166.06;4954300;28;96830;-48
2021/03/13 09:32:20;;;;;;;1.38;0.50;;;;;;;22.00;32.19;99170.50;4951556;28;96911;-48
2021/03/13 09:34:46;;;;;;;1.55;0.40;;;;;;;22.01;32.28;99163.41;4944253;28;97434;-48
2021/03/13 09:37:15;;;;;;;0.70;0.40;;;;;;;22.00;32.48;99154.59;4942854;28;98379;-48
2021/03/13 09:39:43;;;;;;;0.68;0.40;;;;;;;22.01;32.45;99145.69;4937670;28;96672;-48
2021/03/13 09:42:10;;;;;;;1.35;0.40;;;;;;;22.02;32.62;99141.22;4950414;28;96695;-48
2021/03/13 09:44:47;;;;;;;3.90;0.82;;;;;;;22.02;32.31;99138.56;4950741;28;97476;-48
2021/03/13 09:47:16;;;;;;;1.50;0.43;;;;;;;22.03;32.31;99137.59;4951985;28;97335;-48
2021/03/13 09:49:43;;;;;;;0.90;0.50;;;;;;;22.03;32.37;99146.44;4953861;28;96834;-48
2021/03/13 09:52:09;;;;;;;0.88;0.50;;;;;;;22.04;32.24;99145.47;4953231;28;96905;-48
2021/03/13 09:54:35;;;;;;;2.17;0.50;;;;;;;22.03;32.50;99143.78;4948620;28;97557;-48
2021/03/13 09:57:08;;;;;;;2.78;0.60;;;;;;;22.04;32.91;99149.94;4954318;28;100822;-49
2021/03/13 09:59:34;;;;;;;2.72;0.80;;;;;;;22.04;33.01;99155.25;4974900;28;96824;-49
2021/03/13 10:01:59;;;;;;;4.10;0.60;;;;;;;22.04;32.59;99140.16;4971842;28;97645;-49
2021/03/13 10:04:25;;;;;;;7.13;1.17;;;;;;;22.05;33.06;99141.03;4952752;28;97316;-49
2021/03/13 10:06:51;;;;;;;2.75;0.80;;;;;;;22.07;33.04;99144.44;4961638;28;97541;-49
2021/03/13 10:09:16;;;;;;;6.65;1.00;;;;;;;22.08;32.53;99140.81;4960327;28;96773;-49
2021/03/13 10:11:42;;;;;;;4.50;0.80;;;;;;;22.09;32.68;99144.34;4954039;28;96865;-49
2021/03/13 10:14:18;;;;;;;5.82;1.17;;;;;;;22.08;32.61;99129.38;4956609;28;97596;-49
2021/03/13 10:16:45;;;;;;;4.47;1.10;;;;;;;22.08;32.47;99122.25;4956058;28;97068;-49
2021/03/13 10:19:32;;;;;;;2.83;0.98;;;;;;;22.05;32.52;99122.47;4959384;28;96917;-49
2021/03/13 10:22:22;;;;;;;5.18;0.90;;;;;;;22.06;32.77;99127.63;4953513;28;98732;-49
2021/03/13 10:24:54;;;;;;;5.70;0.98;;;;;;;22.08;32.86;99108.13;4948426;28;98932;-49
2021/03/13 10:27:20;;;;;;;4.90;1.00;;;;;;;22.09;32.63;99120.47;4953215;28;97958;-49
2021/03/13 10:29:52;;;;;;;6.40;1.10;;;;;;;22.08;32.41;99122.25;4960151;28;96785;-49
2021/03/13 10:32:25;;;;;;;4.93;0.82;;;;;;;22.09;32.62;99120.47;4960133;28;96929;-49
2021/03/13 10:35:18;;;;;;;4.05;0.75;;;;;;;22.08;32.51;99124.91;4957675;28;98786;-49
2021/03/13 10:37:45;;;;;;;3.92;0.85;;;;;;;22.11;32.54;99135.34;4959324;28;97291;-49
2021/03/13 10:40:35;;;;;;;2.00;0.65;;;;;;;22.09;32.69;99131.94;4959632;28;97418;-49
2021/03/13 10:43:12;;;;;;;3.63;1.88;;;;;;;22.11;32.47;99134.50;4955853;28;96752;-51
2021/03/13 10:45:38;;;;;;;2.67;0.90;;;;;;;22.12;32.35;99131.75;4952199;28;99594;-52
2021/03/13 10:48:05;;;;;;;4.68;1.13;;;;;;;22.14;32.19;99142.25;4953982;28;97205;-52
2021/03/13 10:50:31;;;;;;;4.88;1.13;;;;;;;22.13;32.69;99128.13;4958399;28;96712;-52
2021/03/13 10:52:56;;;;;;;4.70;1.10;;;;;;;22.15;32.52;99131.53;4947162;28;98037;-52
2021/03/13 10:55:38;;;;;;;4.72;1.27;;;;;;;22.14;32.44;99136.94;4950387;28;97335;-52
2021/03/13 10:58:03;;;;;;;4.50;1.08;;;;;;;22.17;32.41;99134.94;4953701;28;97193;-52
2021/03/13 11:00:29;;;;;;;2.97;1.00;;;;;;;22.17;32.50;99145.56;4956074;28;97155;-53
2021/03/13 11:02:55;;;;;;;3.85;1.42;;;;;;;22.18;32.57;99133.16;4958037;28;97089;-52
2021/03/13 11:05:20;;;;;;;2.85;0.88;;;;;;;22.18;32.37;99135.81;4954759;28;98431;-52
2021/03/13 11:07:46;;;;;;;3.15;0.90;;;;;;;22.18;32.17;99147.28;4954659;28;97160;-52
2021/03/13 11:10:11;;;;;;;5.65;0.98;;;;;;;22.18;32.13;99115.41;4951011;28;98146;-52
2021/03/13 11:12:37;;;;;;;4.00;1.20;;;;;;;22.19;32.26;99138.38;4958259;28;96821;-52
2021/03/13 11:15:03;;;;;;;2.63;1.05;;;;;;;22.19;32.33;99130.41;4953961;28;98262;-52
2021/03/13 11:17:29;;;;;;;4.00;1.00;;;;;;;22.20;32.29;99140.06;4953759;28;97192;-53
2021/03/13 11:19:55;;;;;;;4.07;1.27;;;;;;;22.20;32.42;99129.44;4955208;28;96783;-52
2021/03/13 11:22:20;;;;;;;2.08;0.80;;;;;;;22.21;31.98;99130.28;4954596;28;96957;-52
2021/03/13 11:24:46;;;;;;;1.95;0.73;;;;;;;22.21;32.24;99106.38;4955372;28;97597;-52
2021/03/13 11:27:11;;;;;;;3.00;1.08;;;;;;;22.21;32.31;99109.91;4949196;28;98666;-52
2021/03/13 11:29:38;;;;;;;3.33;1.20;;;;;;;22.22;32.13;99098.31;4949770;28;96768;-52
2021/03/13 11:32:04;;;;;;;2.85;0.93;;;;;;;22.22;31.98;99100.13;4949020;28;96860;-52
2021/03/13 11:34:30;;;;;;;3.35;1.13;;;;;;;22.22;32.03;99100.97;4957338;28;97477;-52
2021/03/13 11:36:58;;;;;;;2.47;0.90;;;;;;;22.22;32.13;99105.44;4958741;28;99376;-52
2021/03/13 11:39:26;;;;;;;2.90;1.17;;;;;;;22.22;32.20;99129.34;4947361;28;96817;-53
2021/03/13 11:41:52;;;;;;;2.70;0.98;;;;;;;22.22;31.92;99156.75;4950996;28;96741;-52